Dallas, Texas
Traffic Map
Current Weather Conditions
Dallas, Texas
Broken Clouds
Broken Clouds
88°
Feels Like: 95°
Wind Chill: 88° Ceiling: 30000
Heat Index: 95° Visibility: 10mi
Dew Point: 72° Wind: 7mph
Humidity: 59% Direction: 210° (SSW)
Pressure: 30in Gusts: 0mph
Raw Report DataKDAL 260153Z 21006KT 10SM FEW050 SCT200 BKN300 31/22 A3000 RMK AO2 SLP150 T03110222
Traffic Incident Summary
Active as of:
Severity:
Category:
InformationThere was an issue retrieving the traffic information for this location. Please try a different location or try again shortly.
Advertisements
Track Severe Weather on mobile